sensor_id;sensor_type;location;lat;lon;timestamp;P1;durP1;ratioP1;P2;durP2;ratioP2
35518;SDS011;21627;48.216;16.482;2024-03-23T00:54:24;16.98;;;10.32;;
35518;SDS011;21627;48.216;16.482;2024-03-23T00:56:50;16.83;;;10.10;;
35518;SDS011;21627;48.216;16.482;2024-03-23T00:59:16;14.40;;;9.75;;
35518;SDS011;21627;48.216;16.482;2024-03-23T01:01:42;15.73;;;9.88;;
35518;SDS011;21627;48.216;16.482;2024-03-23T01:04:09;16.88;;;10.60;;
35518;SDS011;21627;48.216;16.482;2024-03-23T01:06:35;15.98;;;9.15;;
35518;SDS011;21627;48.216;16.482;2024-03-23T01:09:01;14.88;;;10.07;;
35518;SDS011;21627;48.216;16.482;2024-03-23T01:11:27;14.82;;;9.30;;
35518;SDS011;21627;48.216;16.482;2024-03-23T01:13:54;14.65;;;9.32;;
35518;SDS011;21627;48.216;16.482;2024-03-23T01:16:21;14.48;;;9.43;;
35518;SDS011;21627;48.216;16.482;2024-03-23T01:18:47;15.38;;;10.25;;
35518;SDS011;21627;48.216;16.482;2024-03-23T01:21:13;18.58;;;10.10;;
35518;SDS011;21627;48.216;16.482;2024-03-23T01:23:39;16.00;;;10.25;;
35518;SDS011;21627;48.216;16.482;2024-03-23T01:26:05;17.88;;;10.07;;
35518;SDS011;21627;48.216;16.482;2024-03-23T01:28:31;17.80;;;10.18;;
35518;SDS011;21627;48.216;16.482;2024-03-23T01:30:58;15.80;;;9.75;;
35518;SDS011;21627;48.216;16.482;2024-03-23T01:33:24;18.98;;;10.43;;
35518;SDS011;21627;48.216;16.482;2024-03-23T01:35:50;17.40;;;11.02;;
35518;SDS011;21627;48.216;16.482;2024-03-23T01:38:16;15.90;;;10.65;;
35518;SDS011;21627;48.216;16.482;2024-03-23T01:40:42;20.35;;;11.25;;
35518;SDS011;21627;48.216;16.482;2024-03-23T01:43:08;23.13;;;10.80;;
35518;SDS011;21627;48.216;16.482;2024-03-23T01:45:34;16.40;;;10.23;;
35518;SDS011;21627;48.216;16.482;2024-03-23T01:48:01;17.63;;;10.70;;
35518;SDS011;21627;48.216;16.482;2024-03-23T01:50:28;16.35;;;11.25;;
35518;SDS011;21627;48.216;16.482;2024-03-23T01:52:56;18.25;;;10.65;;
35518;SDS011;21627;48.216;16.482;2024-03-23T01:55:23;21.20;;;10.88;;
35518;SDS011;21627;48.216;16.482;2024-03-23T01:57:49;20.42;;;11.82;;
35518;SDS011;21627;48.216;16.482;2024-03-23T02:00:15;16.85;;;11.80;;
35518;SDS011;21627;48.216;16.482;2024-03-23T02:02:42;21.13;;;10.82;;
35518;SDS011;21627;48.216;16.482;2024-03-23T02:05:10;17.73;;;11.30;;
35518;SDS011;21627;48.216;16.482;2024-03-23T02:07:38;20.00;;;11.35;;
35518;SDS011;21627;48.216;16.482;2024-03-23T02:10:06;16.73;;;10.77;;
35518;SDS011;21627;48.216;16.482;2024-03-23T02:12:33;16.45;;;11.02;;
35518;SDS011;21627;48.216;16.482;2024-03-23T02:15:00;19.48;;;11.00;;
35518;SDS011;21627;48.216;16.482;2024-03-23T02:17:26;16.13;;;10.98;;
35518;SDS011;21627;48.216;16.482;2024-03-23T02:19:54;19.45;;;11.52;;
35518;SDS011;21627;48.216;16.482;2024-03-23T02:22:20;18.30;;;11.68;;
35518;SDS011;21627;48.216;16.482;2024-03-23T02:24:46;18.73;;;12.30;;
35518;SDS011;21627;48.216;16.482;2024-03-23T02:27:12;17.30;;;11.02;;
35518;SDS011;21627;48.216;16.482;2024-03-23T02:29:38;18.42;;;10.70;;
35518;SDS011;21627;48.216;16.482;2024-03-23T02:32:05;22.27;;;11.20;;
35518;SDS011;21627;48.216;16.482;2024-03-23T02:34:31;16.88;;;11.50;;
35518;SDS011;21627;48.216;16.482;2024-03-23T02:36:57;15.95;;;11.38;;
35518;SDS011;21627;48.216;16.482;2024-03-23T02:39:23;19.05;;;11.55;;
35518;SDS011;21627;48.216;16.482;2024-03-23T02:41:49;22.42;;;12.40;;
35518;SDS011;21627;48.216;16.482;2024-03-23T02:44:16;17.30;;;11.10;;
35518;SDS011;21627;48.216;16.482;2024-03-23T02:46:42;17.77;;;11.30;;
35518;SDS011;21627;48.216;16.482;2024-03-23T02:49:08;20.50;;;11.55;;
35518;SDS011;21627;48.216;16.482;2024-03-23T02:51:34;18.98;;;11.43;;
35518;SDS011;21627;48.216;16.482;2024-03-23T02:54:00;19.80;;;12.23;;
35518;SDS011;21627;48.216;16.482;2024-03-23T02:56:26;18.75;;;11.30;;
35518;SDS011;21627;48.216;16.482;2024-03-23T02:58:52;16.40;;;10.80;;
35518;SDS011;21627;48.216;16.482;2024-03-23T03:01:18;21.98;;;12.48;;
35518;SDS011;21627;48.216;16.482;2024-03-23T03:03:45;19.50;;;12.43;;
35518;SDS011;21627;48.216;16.482;2024-03-23T03:06:11;21.95;;;12.68;;
35518;SDS011;21627;48.216;16.482;2024-03-23T03:08:37;19.60;;;11.50;;
35518;SDS011;21627;48.216;16.482;2024-03-23T03:11:03;20.90;;;11.50;;
35518;SDS011;21627;48.216;16.482;2024-03-23T03:13:29;20.88;;;11.95;;
35518;SDS011;21627;48.216;16.482;2024-03-23T03:15:55;17.80;;;12.00;;
35518;SDS011;21627;48.216;16.482;2024-03-23T03:18:21;18.38;;;11.98;;
35518;SDS011;21627;48.216;16.482;2024-03-23T03:20:48;18.63;;;11.93;;
35518;SDS011;21627;48.216;16.482;2024-03-23T03:23:14;18.65;;;11.80;;
35518;SDS011;21627;48.216;16.482;2024-03-23T03:25:40;22.35;;;11.82;;
35518;SDS011;21627;48.216;16.482;2024-03-23T03:28:06;21.20;;;12.43;;
35518;SDS011;21627;48.216;16.482;2024-03-23T03:30:33;20.52;;;12.77;;
35518;SDS011;21627;48.216;16.482;2024-03-23T03:32:59;19.38;;;12.48;;
35518;SDS011;21627;48.216;16.482;2024-03-23T03:35:25;18.60;;;12.80;;
35518;SDS011;21627;48.216;16.482;2024-03-23T03:37:51;17.50;;;11.98;;
35518;SDS011;21627;48.216;16.482;2024-03-23T03:40:17;21.58;;;12.52;;
35518;SDS011;21627;48.216;16.482;2024-03-23T03:42:43;20.55;;;12.70;;
35518;SDS011;21627;48.216;16.482;2024-03-23T03:45:10;17.52;;;11.75;;
35518;SDS011;21627;48.216;16.482;2024-03-23T03:47:36;20.70;;;12.63;;
35518;SDS011;21627;48.216;16.482;2024-03-23T03:50:02;26.35;;;12.10;;
35518;SDS011;21627;48.216;16.482;2024-03-23T03:52:28;22.85;;;13.18;;
35518;SDS011;21627;48.216;16.482;2024-03-23T03:55:00;18.40;;;12.13;;
35518;SDS011;21627;48.216;16.482;2024-03-23T03:57:28;18.88;;;11.77;;
35518;SDS011;21627;48.216;16.482;2024-03-23T03:59:54;18.67;;;11.95;;
35518;SDS011;21627;48.216;16.482;2024-03-23T04:02:20;20.30;;;12.13;;
35518;SDS011;21627;48.216;16.482;2024-03-23T04:04:47;18.25;;;12.13;;
35518;SDS011;21627;48.216;16.482;2024-03-23T04:07:15;23.90;;;12.50;;
35518;SDS011;21627;48.216;16.482;2024-03-23T04:09:43;19.15;;;11.68;;
35518;SDS011;21627;48.216;16.482;2024-03-23T04:12:10;19.13;;;11.73;;
35518;SDS011;21627;48.216;16.482;2024-03-23T04:14:36;21.45;;;10.93;;
35518;SDS011;21627;48.216;16.482;2024-03-23T04:17:02;20.33;;;12.15;;
35518;SDS011;21627;48.216;16.482;2024-03-23T04:19:28;19.50;;;12.18;;
35518;SDS011;21627;48.216;16.482;2024-03-23T04:21:54;18.65;;;11.68;;
35518;SDS011;21627;48.216;16.482;2024-03-23T04:24:20;21.65;;;11.98;;
35518;SDS011;21627;48.216;16.482;2024-03-23T04:26:47;22.67;;;11.57;;
35518;SDS011;21627;48.216;16.482;2024-03-23T04:29:14;20.48;;;12.20;;
35518;SDS011;21627;48.216;16.482;2024-03-23T04:31:40;20.83;;;11.80;;
35518;SDS011;21627;48.216;16.482;2024-03-23T04:34:06;19.10;;;11.50;;
35518;SDS011;21627;48.216;16.482;2024-03-23T04:36:32;17.73;;;12.38;;
35518;SDS011;21627;48.216;16.482;2024-03-23T04:38:59;17.25;;;10.98;;
35518;SDS011;21627;48.216;16.482;2024-03-23T04:41:26;18.80;;;11.63;;
35518;SDS011;21627;48.216;16.482;2024-03-23T04:43:52;18.42;;;11.32;;
35518;SDS011;21627;48.216;16.482;2024-03-23T04:46:18;16.55;;;11.32;;
35518;SDS011;21627;48.216;16.482;2024-03-23T04:48:45;21.52;;;11.32;;
35518;SDS011;21627;48.216;16.482;2024-03-23T04:51:19;18.85;;;11.20;;
35518;SDS011;21627;48.216;16.482;2024-03-23T04:53:47;19.10;;;10.65;;
35518;SDS011;21627;48.216;16.482;2024-03-23T04:56:16;17.02;;;11.15;;
35518;SDS011;21627;48.216;16.482;2024-03-23T04:58:43;19.23;;;11.30;;
35518;SDS011;21627;48.216;16.482;2024-03-23T05:01:10;14.98;;;10.90;;
35518;SDS011;21627;48.216;16.482;2024-03-23T05:03:37;15.27;;;11.02;;
35518;SDS011;21627;48.216;16.482;2024-03-23T05:06:04;18.13;;;10.95;;
35518;SDS011;21627;48.216;16.482;2024-03-23T05:08:31;17.45;;;11.63;;
35518;SDS011;21627;48.216;16.482;2024-03-23T05:10:57;16.10;;;10.57;;
35518;SDS011;21627;48.216;16.482;2024-03-23T05:13:23;17.02;;;10.52;;
35518;SDS011;21627;48.216;16.482;2024-03-23T05:15:55;21.65;;;11.88;;
35518;SDS011;21627;48.216;16.482;2024-03-23T05:18:21;17.40;;;12.10;;
35518;SDS011;21627;48.216;16.482;2024-03-23T05:20:48;15.52;;;11.00;;
35518;SDS011;21627;48.216;16.482;2024-03-23T05:23:14;19.08;;;10.95;;
35518;SDS011;21627;48.216;16.482;2024-03-23T05:25:40;23.20;;;11.35;;
35518;SDS011;21627;48.216;16.482;2024-03-23T05:28:06;13.90;;;10.23;;
35518;SDS011;21627;48.216;16.482;2024-03-23T05:30:33;16.08;;;10.73;;
35518;SDS011;21627;48.216;16.482;2024-03-23T05:32:59;17.52;;;11.45;;
35518;SDS011;21627;48.216;16.482;2024-03-23T05:35:25;18.83;;;11.43;;
35518;SDS011;21627;48.216;16.482;2024-03-23T05:37:51;14.75;;;10.75;;
35518;SDS011;21627;48.216;16.482;2024-03-23T05:40:17;15.23;;;10.45;;
35518;SDS011;21627;48.216;16.482;2024-03-23T05:42:43;19.65;;;11.35;;
35518;SDS011;21627;48.216;16.482;2024-03-23T05:45:09;15.68;;;10.52;;
35518;SDS011;21627;48.216;16.482;2024-03-23T05:47:36;19.33;;;11.25;;
35518;SDS011;21627;48.216;16.482;2024-03-23T05:50:02;16.08;;;10.95;;
35518;SDS011;21627;48.216;16.482;2024-03-23T05:52:29;16.42;;;11.27;;
35518;SDS011;21627;48.216;16.482;2024-03-23T05:54:56;17.40;;;11.40;;
35518;SDS011;21627;48.216;16.482;2024-03-23T05:57:23;14.02;;;10.18;;
35518;SDS011;21627;48.216;16.482;2024-03-23T05:59:49;17.38;;;9.98;;
35518;SDS011;21627;48.216;16.482;2024-03-23T06:02:16;15.50;;;10.45;;
35518;SDS011;21627;48.216;16.482;2024-03-23T06:04:42;16.10;;;10.75;;
35518;SDS011;21627;48.216;16.482;2024-03-23T06:07:11;13.25;;;9.77;;
35518;SDS011;21627;48.216;16.482;2024-03-23T06:09:39;15.45;;;9.88;;
35518;SDS011;21627;48.216;16.482;2024-03-23T06:12:06;15.80;;;9.60;;
35518;SDS011;21627;48.216;16.482;2024-03-23T06:14:34;17.40;;;9.13;;
35518;SDS011;21627;48.216;16.482;2024-03-23T06:17:00;15.38;;;9.50;;
35518;SDS011;21627;48.216;16.482;2024-03-23T06:19:27;12.73;;;9.15;;
35518;SDS011;21627;48.216;16.482;2024-03-23T06:21:53;15.27;;;8.80;;
35518;SDS011;21627;48.216;16.482;2024-03-23T06:24:23;22.92;;;9.07;;
35518;SDS011;21627;48.216;16.482;2024-03-23T06:26:49;16.10;;;9.13;;
35518;SDS011;21627;48.216;16.482;2024-03-23T06:29:15;11.77;;;8.45;;
35518;SDS011;21627;48.216;16.482;2024-03-23T06:31:42;16.98;;;8.68;;
35518;SDS011;21627;48.216;16.482;2024-03-23T06:34:08;13.50;;;9.27;;
35518;SDS011;21627;48.216;16.482;2024-03-23T06:36:34;11.68;;;8.55;;
35518;SDS011;21627;48.216;16.482;2024-03-23T06:39:01;15.77;;;8.80;;
35518;SDS011;21627;48.216;16.482;2024-03-23T06:41:27;14.90;;;9.02;;
35518;SDS011;21627;48.216;16.482;2024-03-23T06:43:53;16.45;;;8.88;;
35518;SDS011;21627;48.216;16.482;2024-03-23T06:46:20;14.57;;;8.15;;
35518;SDS011;21627;48.216;16.482;2024-03-23T06:48:46;14.23;;;7.03;;
35518;SDS011;21627;48.216;16.482;2024-03-23T06:51:12;13.63;;;8.00;;
35518;SDS011;21627;48.216;16.482;2024-03-23T06:53:38;14.77;;;7.47;;
35518;SDS011;21627;48.216;16.482;2024-03-23T06:56:04;12.98;;;8.43;;
35518;SDS011;21627;48.216;16.482;2024-03-23T06:58:31;10.93;;;7.68;;
35518;SDS011;21627;48.216;16.482;2024-03-23T07:00:58;10.82;;;6.90;;
35518;SDS011;21627;48.216;16.482;2024-03-23T07:03:24;17.05;;;7.25;;
35518;SDS011;21627;48.216;16.482;2024-03-23T07:05:51;12.70;;;7.55;;
35518;SDS011;21627;48.216;16.482;2024-03-23T07:08:17;11.05;;;7.88;;
35518;SDS011;21627;48.216;16.482;2024-03-23T07:10:47;15.38;;;7.78;;
35518;SDS011;21627;48.216;16.482;2024-03-23T07:13:13;13.32;;;7.53;;
35518;SDS011;21627;48.216;16.482;2024-03-23T07:15:40;11.77;;;7.28;;
35518;SDS011;21627;48.216;16.482;2024-03-23T07:18:06;15.70;;;7.57;;
35518;SDS011;21627;48.216;16.482;2024-03-23T07:20:32;10.45;;;7.43;;
35518;SDS011;21627;48.216;16.482;2024-03-23T07:22:58;12.38;;;7.80;;
35518;SDS011;21627;48.216;16.482;2024-03-23T07:25:24;11.77;;;8.10;;
35518;SDS011;21627;48.216;16.482;2024-03-23T07:27:55;13.05;;;7.43;;
35518;SDS011;21627;48.216;16.482;2024-03-23T07:30:21;14.52;;;8.63;;
35518;SDS011;21627;48.216;16.482;2024-03-23T07:32:47;11.27;;;7.90;;
35518;SDS011;21627;48.216;16.482;2024-03-23T07:35:13;15.82;;;8.23;;
35518;SDS011;21627;48.216;16.482;2024-03-23T07:37:40;14.35;;;7.85;;
35518;SDS011;21627;48.216;16.482;2024-03-23T07:40:07;12.07;;;8.23;;
35518;SDS011;21627;48.216;16.482;2024-03-23T07:42:37;15.68;;;7.88;;
35518;SDS011;21627;48.216;16.482;2024-03-23T07:45:03;16.67;;;9.23;;
35518;SDS011;21627;48.216;16.482;2024-03-23T07:47:30;13.25;;;8.35;;
35518;SDS011;21627;48.216;16.482;2024-03-23T07:49:56;11.43;;;8.20;;
35518;SDS011;21627;48.216;16.482;2024-03-23T07:52:23;17.70;;;8.45;;
35518;SDS011;21627;48.216;16.482;2024-03-23T07:54:49;15.85;;;8.52;;
35518;SDS011;21627;48.216;16.482;2024-03-23T07:57:15;17.85;;;7.55;;
35518;SDS011;21627;48.216;16.482;2024-03-23T07:59:41;11.93;;;7.72;;
35518;SDS011;21627;48.216;16.482;2024-03-23T08:02:07;19.95;;;7.93;;
35518;SDS011;21627;48.216;16.482;2024-03-23T08:04:34;12.18;;;7.10;;
35518;SDS011;21627;48.216;16.482;2024-03-23T08:07:00;11.30;;;6.45;;
35518;SDS011;21627;48.216;16.482;2024-03-23T08:09:26;10.85;;;6.68;;
35518;SDS011;21627;48.216;16.482;2024-03-23T08:11:52;9.38;;;6.15;;
35518;SDS011;21627;48.216;16.482;2024-03-23T08:14:18;11.25;;;6.13;;
35518;SDS011;21627;48.216;16.482;2024-03-23T08:16:45;9.57;;;5.95;;
35518;SDS011;21627;48.216;16.482;2024-03-23T08:19:14;7.80;;;5.80;;
35518;SDS011;21627;48.216;16.482;2024-03-23T08:21:40;8.85;;;6.07;;
35518;SDS011;21627;48.216;16.482;2024-03-23T08:24:07;13.90;;;6.47;;
35518;SDS011;21627;48.216;16.482;2024-03-23T08:26:33;10.10;;;7.18;;
35518;SDS011;21627;48.216;16.482;2024-03-23T08:28:59;16.25;;;7.72;;
35518;SDS011;21627;48.216;16.482;2024-03-23T08:31:25;12.10;;;7.13;;
35518;SDS011;21627;48.216;16.482;2024-03-23T08:33:51;13.70;;;8.15;;
35518;SDS011;21627;48.216;16.482;2024-03-23T08:36:17;10.98;;;7.97;;
35518;SDS011;21627;48.216;16.482;2024-03-23T08:38:43;13.52;;;8.32;;
35518;SDS011;21627;48.216;16.482;2024-03-23T08:41:10;11.32;;;7.10;;
35518;SDS011;21627;48.216;16.482;2024-03-23T08:43:37;9.00;;;6.97;;
35518;SDS011;21627;48.216;16.482;2024-03-23T08:46:05;9.65;;;5.95;;
35518;SDS011;21627;48.216;16.482;2024-03-23T08:48:37;10.13;;;4.70;;
35518;SDS011;21627;48.216;16.482;2024-03-23T08:51:11;6.72;;;4.03;;
35518;SDS011;21627;48.216;16.482;2024-03-23T08:53:39;8.75;;;4.30;;
35518;SDS011;21627;48.216;16.482;2024-03-23T08:56:06;7.25;;;3.60;;
35518;SDS011;21627;48.216;16.482;2024-03-23T08:58:34;5.90;;;3.60;;
35518;SDS011;21627;48.216;16.482;2024-03-23T09:01:05;4.07;;;2.75;;
35518;SDS011;21627;48.216;16.482;2024-03-23T09:03:38;8.25;;;2.83;;
35518;SDS011;21627;48.216;16.482;2024-03-23T09:06:08;4.40;;;2.70;;
35518;SDS011;21627;48.216;16.482;2024-03-23T09:08:36;5.22;;;2.90;;
35518;SDS011;21627;48.216;16.482;2024-03-23T09:11:03;5.30;;;2.67;;
35518;SDS011;21627;48.216;16.482;2024-03-23T09:13:34;8.93;;;2.70;;
35518;SDS011;21627;48.216;16.482;2024-03-23T09:16:02;4.47;;;3.03;;
35518;SDS011;21627;48.216;16.482;2024-03-23T09:18:33;5.60;;;3.00;;
35518;SDS011;21627;48.216;16.482;2024-03-23T09:21:06;8.85;;;2.58;;
35518;SDS011;21627;48.216;16.482;2024-03-23T09:23:43;6.63;;;3.35;;
35518;SDS011;21627;48.216;16.482;2024-03-23T09:26:09;5.50;;;3.70;;
35518;SDS011;21627;48.216;16.482;2024-03-23T09:28:36;5.72;;;3.63;;
35518;SDS011;21627;48.216;16.482;2024-03-23T09:31:06;5.93;;;3.20;;
35518;SDS011;21627;48.216;16.482;2024-03-23T09:33:33;9.48;;;3.15;;
35518;SDS011;21627;48.216;16.482;2024-03-23T09:36:04;4.97;;;2.88;;
35518;SDS011;21627;48.216;16.482;2024-03-23T09:38:32;4.72;;;2.95;;
35518;SDS011;21627;48.216;16.482;2024-03-23T09:40:58;4.78;;;3.10;;
35518;SDS011;21627;48.216;16.482;2024-03-23T09:43:25;5.78;;;3.50;;
35518;SDS011;21627;48.216;16.482;2024-03-23T09:45:51;7.78;;;3.58;;
35518;SDS011;21627;48.216;16.482;2024-03-23T09:48:19;5.82;;;3.40;;
35518;SDS011;21627;48.216;16.482;2024-03-23T09:50:45;5.07;;;3.10;;
35518;SDS011;21627;48.216;16.482;2024-03-23T09:53:12;6.05;;;2.90;;
35518;SDS011;21627;48.216;16.482;2024-03-23T09:55:39;5.78;;;3.28;;
35518;SDS011;21627;48.216;16.482;2024-03-23T09:58:12;7.57;;;3.65;;
35518;SDS011;21627;48.216;16.482;2024-03-23T10:00:39;11.73;;;5.00;;
35518;SDS011;21627;48.216;16.482;2024-03-23T10:03:06;9.40;;;4.93;;
35518;SDS011;21627;48.216;16.482;2024-03-23T10:05:32;8.50;;;4.25;;
35518;SDS011;21627;48.216;16.482;2024-03-23T10:10:43;7.47;;;3.40;;
35518;SDS011;21627;48.216;16.482;2024-03-23T10:13:10;5.50;;;3.35;;
35518;SDS011;21627;48.216;16.482;2024-03-23T10:15:50;5.90;;;3.03;;
35518;SDS011;21627;48.216;16.482;2024-03-23T10:18:24;8.63;;;3.85;;
35518;SDS011;21627;48.216;16.482;2024-03-23T10:21:11;7.10;;;3.58;;
35518;SDS011;21627;48.216;16.482;2024-03-23T10:23:43;8.48;;;4.90;;
35518;SDS011;21627;48.216;16.482;2024-03-23T10:26:14;14.95;;;4.45;;
35518;SDS011;21627;48.216;16.482;2024-03-23T10:31:33;6.80;;;3.63;;
35518;SDS011;21627;48.216;16.482;2024-03-23T10:34:03;10.02;;;3.65;;
35518;SDS011;21627;48.216;16.482;2024-03-23T10:36:29;4.30;;;3.00;;
35518;SDS011;21627;48.216;16.482;2024-03-23T10:38:56;9.90;;;4.70;;
35518;SDS011;21627;48.216;16.482;2024-03-23T10:41:28;4.07;;;2.38;;
35518;SDS011;21627;48.216;16.482;2024-03-23T10:43:57;8.77;;;2.65;;
35518;SDS011;21627;48.216;16.482;2024-03-23T10:46:29;3.53;;;2.65;;
35518;SDS011;21627;48.216;16.482;2024-03-23T10:48:56;3.35;;;2.35;;
35518;SDS011;21627;48.216;16.482;2024-03-23T10:51:22;6.63;;;3.05;;
35518;SDS011;21627;48.216;16.482;2024-03-23T10:53:49;5.50;;;3.03;;
35518;SDS011;21627;48.216;16.482;2024-03-23T10:56:16;4.78;;;2.40;;
35518;SDS011;21627;48.216;16.482;2024-03-23T10:58:45;8.07;;;2.00;;
35518;SDS011;21627;48.216;16.482;2024-03-23T11:01:14;4.90;;;2.38;;
35518;SDS011;21627;48.216;16.482;2024-03-23T11:03:45;4.47;;;2.28;;
35518;SDS011;21627;48.216;16.482;2024-03-23T11:06:33;7.90;;;2.22;;
35518;SDS011;21627;48.216;16.482;2024-03-23T11:09:02;3.30;;;2.00;;
35518;SDS011;21627;48.216;16.482;2024-03-23T11:11:28;4.13;;;2.03;;
35518;SDS011;21627;48.216;16.482;2024-03-23T11:13:57;4.00;;;2.03;;
35518;SDS011;21627;48.216;16.482;2024-03-23T11:22:02;7.90;;;2.20;;
35518;SDS011;21627;48.216;16.482;2024-03-23T11:24:29;3.28;;;1.90;;
35518;SDS011;21627;48.216;16.482;2024-03-23T11:26:55;4.20;;;1.70;;
35518;SDS011;21627;48.216;16.482;2024-03-23T11:29:21;6.38;;;2.33;;
35518;SDS011;21627;48.216;16.482;2024-03-23T11:31:47;2.35;;;1.80;;
35518;SDS011;21627;48.216;16.482;2024-03-23T11:34:15;7.05;;;2.60;;
35518;SDS011;21627;48.216;16.482;2024-03-23T11:36:42;13.43;;;2.72;;
35518;SDS011;21627;48.216;16.482;2024-03-23T11:39:15;7.18;;;2.42;;
35518;SDS011;21627;48.216;16.482;2024-03-23T11:41:50;4.27;;;2.23;;
35518;SDS011;21627;48.216;16.482;2024-03-23T11:44:22;3.87;;;2.13;;
35518;SDS011;21627;48.216;16.482;2024-03-23T11:46:50;5.45;;;2.40;;
35518;SDS011;21627;48.216;16.482;2024-03-23T11:49:23;6.18;;;2.42;;
35518;SDS011;21627;48.216;16.482;2024-03-23T11:51:50;5.80;;;3.15;;
35518;SDS011;21627;48.216;16.482;2024-03-23T11:54:21;3.72;;;2.28;;
35518;SDS011;21627;48.216;16.482;2024-03-23T11:56:56;5.00;;;2.30;;
35518;SDS011;21627;48.216;16.482;2024-03-23T11:59:36;5.78;;;2.42;;
35518;SDS011;21627;48.216;16.482;2024-03-23T12:04:35;11.45;;;3.13;;
35518;SDS011;21627;48.216;16.482;2024-03-23T12:07:15;3.85;;;2.30;;
35518;SDS011;21627;48.216;16.482;2024-03-23T12:10:04;7.05;;;3.22;;
35518;SDS011;21627;48.216;16.482;2024-03-23T12:12:34;4.25;;;2.92;;
35518;SDS011;21627;48.216;16.482;2024-03-23T12:15:04;5.40;;;2.50;;
35518;SDS011;21627;48.216;16.482;2024-03-23T12:17:34;4.40;;;2.80;;
35518;SDS011;21627;48.216;16.482;2024-03-23T12:20:01;8.82;;;2.78;;
35518;SDS011;21627;48.216;16.482;2024-03-23T12:22:28;3.40;;;2.63;;
35518;SDS011;21627;48.216;16.482;2024-03-23T12:24:55;6.93;;;2.92;;
35518;SDS011;21627;48.216;16.482;2024-03-23T12:27:21;3.95;;;2.53;;
35518;SDS011;21627;48.216;16.482;2024-03-23T12:29:51;11.90;;;3.45;;
35518;SDS011;21627;48.216;16.482;2024-03-23T12:32:17;5.47;;;3.38;;
35518;SDS011;21627;48.216;16.482;2024-03-23T12:34:44;8.85;;;3.90;;
35518;SDS011;21627;48.216;16.482;2024-03-23T12:37:10;9.93;;;3.80;;
35518;SDS011;21627;48.216;16.482;2024-03-23T12:39:37;8.02;;;3.55;;
35518;SDS011;21627;48.216;16.482;2024-03-23T12:42:04;12.45;;;4.13;;
35518;SDS011;21627;48.216;16.482;2024-03-23T12:44:30;23.83;;;6.18;;
35518;SDS011;21627;48.216;16.482;2024-03-23T12:46:57;7.88;;;4.10;;
35518;SDS011;21627;48.216;16.482;2024-03-23T12:49:23;8.95;;;4.50;;
35518;SDS011;21627;48.216;16.482;2024-03-23T12:51:55;8.32;;;4.50;;
35518;SDS011;21627;48.216;16.482;2024-03-23T12:54:22;7.63;;;4.32;;
35518;SDS011;21627;48.216;16.482;2024-03-23T12:56:49;17.40;;;4.47;;
35518;SDS011;21627;48.216;16.482;2024-03-23T12:59:15;12.00;;;4.55;;
35518;SDS011;21627;48.216;16.482;2024-03-23T13:01:43;11.88;;;5.18;;
35518;SDS011;21627;48.216;16.482;2024-03-23T13:04:10;8.00;;;3.95;;
35518;SDS011;21627;48.216;16.482;2024-03-23T13:06:37;8.13;;;3.58;;
35518;SDS011;21627;48.216;16.482;2024-03-23T13:09:03;8.13;;;3.80;;
35518;SDS011;21627;48.216;16.482;2024-03-23T13:11:30;15.05;;;4.22;;
35518;SDS011;21627;48.216;16.482;2024-03-23T13:13:56;19.75;;;2.45;;
35518;SDS011;21627;48.216;16.482;2024-03-23T13:16:22;12.93;;;2.35;;
35518;SDS011;21627;48.216;16.482;2024-03-23T13:18:49;3.20;;;1.30;;
35518;SDS011;21627;48.216;16.482;2024-03-23T13:21:15;2.30;;;0.90;;
35518;SDS011;21627;48.216;16.482;2024-03-23T13:23:42;3.17;;;0.73;;
35518;SDS011;21627;48.216;16.482;2024-03-23T13:26:13;2.53;;;1.00;;
35518;SDS011;21627;48.216;16.482;2024-03-23T13:28:39;4.78;;;0.90;;
35518;SDS011;21627;48.216;16.482;2024-03-23T13:31:06;7.60;;;0.90;;
35518;SDS011;21627;48.216;16.482;2024-03-23T13:33:34;1.02;;;0.60;;
35518;SDS011;21627;48.216;16.482;2024-03-23T13:36:00;3.35;;;1.23;;
35518;SDS011;21627;48.216;16.482;2024-03-23T13:38:27;1.98;;;0.90;;
35518;SDS011;21627;48.216;16.482;2024-03-23T13:40:54;1.70;;;1.02;;
35518;SDS011;21627;48.216;16.482;2024-03-23T13:43:22;3.97;;;1.60;;
35518;SDS011;21627;48.216;16.482;2024-03-23T13:45:54;7.47;;;1.88;;
35518;SDS011;21627;48.216;16.482;2024-03-23T13:48:25;2.03;;;1.33;;
35518;SDS011;21627;48.216;16.482;2024-03-23T13:51:01;1.02;;;0.90;;
35518;SDS011;21627;48.216;16.482;2024-03-23T13:53:29;5.50;;;1.00;;
35518;SDS011;21627;48.216;16.482;2024-03-23T13:55:56;3.20;;;1.20;;
35518;SDS011;21627;48.216;16.482;2024-03-23T13:58:22;4.55;;;1.20;;
35518;SDS011;21627;48.216;16.482;2024-03-23T14:00:51;1.23;;;0.98;;
35518;SDS011;21627;48.216;16.482;2024-03-23T14:03:18;2.42;;;1.33;;
35518;SDS011;21627;48.216;16.482;2024-03-23T14:05:45;5.32;;;1.40;;
35518;SDS011;21627;48.216;16.482;2024-03-23T14:08:12;5.57;;;1.67;;
35518;SDS011;21627;48.216;16.482;2024-03-23T14:10:42;4.30;;;1.40;;
35518;SDS011;21627;48.216;16.482;2024-03-23T14:13:08;4.50;;;1.50;;
35518;SDS011;21627;48.216;16.482;2024-03-23T14:15:35;1.60;;;1.30;;
35518;SDS011;21627;48.216;16.482;2024-03-23T14:18:04;2.70;;;1.45;;
35518;SDS011;21627;48.216;16.482;2024-03-23T14:20:31;4.68;;;1.25;;
35518;SDS011;21627;48.216;16.482;2024-03-23T14:22:57;2.15;;;1.20;;
35518;SDS011;21627;48.216;16.482;2024-03-23T14:25:23;4.75;;;1.40;;
35518;SDS011;21627;48.216;16.482;2024-03-23T14:27:52;2.55;;;0.93;;
35518;SDS011;21627;48.216;16.482;2024-03-23T14:30:18;4.93;;;1.60;;
35518;SDS011;21627;48.216;16.482;2024-03-23T14:32:45;4.57;;;1.42;;
35518;SDS011;21627;48.216;16.482;2024-03-23T14:35:11;1.95;;;1.40;;
35518;SDS011;21627;48.216;16.482;2024-03-23T14:37:37;2.45;;;1.35;;
35518;SDS011;21627;48.216;16.482;2024-03-23T14:40:03;11.27;;;1.50;;
35518;SDS011;21627;48.216;16.482;2024-03-23T14:42:30;2.25;;;1.60;;
35518;SDS011;21627;48.216;16.482;2024-03-23T14:44:58;2.50;;;1.75;;
35518;SDS011;21627;48.216;16.482;2024-03-23T14:47:24;1.92;;;1.35;;
35518;SDS011;21627;48.216;16.482;2024-03-23T14:49:50;4.45;;;1.73;;
35518;SDS011;21627;48.216;16.482;2024-03-23T14:52:17;2.42;;;1.70;;
35518;SDS011;21627;48.216;16.482;2024-03-23T14:54:44;2.08;;;1.67;;
35518;SDS011;21627;48.216;16.482;2024-03-23T14:57:10;2.88;;;1.83;;
35518;SDS011;21627;48.216;16.482;2024-03-23T14:59:36;9.30;;;2.10;;
35518;SDS011;21627;48.216;16.482;2024-03-23T15:02:08;3.33;;;2.28;;
35518;SDS011;21627;48.216;16.482;2024-03-23T15:04:34;4.45;;;2.00;;
35518;SDS011;21627;48.216;16.482;2024-03-23T15:07:01;1.42;;;1.27;;
35518;SDS011;21627;48.216;16.482;2024-03-23T15:09:28;2.50;;;1.40;;
35518;SDS011;21627;48.216;16.482;2024-03-23T15:11:54;1.98;;;1.38;;
35518;SDS011;21627;48.216;16.482;2024-03-23T15:14:21;3.08;;;1.73;;
35518;SDS011;21627;48.216;16.482;2024-03-23T15:16:48;4.45;;;1.55;;
35518;SDS011;21627;48.216;16.482;2024-03-23T15:19:15;2.00;;;1.45;;
35518;SDS011;21627;48.216;16.482;2024-03-23T15:21:45;1.77;;;1.30;;
35518;SDS011;21627;48.216;16.482;2024-03-23T15:24:11;2.25;;;1.60;;
35518;SDS011;21627;48.216;16.482;2024-03-23T15:26:38;1.52;;;1.25;;
35518;SDS011;21627;48.216;16.482;2024-03-23T15:29:04;2.75;;;1.40;;
35518;SDS011;21627;48.216;16.482;2024-03-23T15:31:42;1.67;;;1.20;;